Time;durP1;ratioP1;P1;durP2;ratioP2;P2;SDS_P1;SDS_P2;PMS_P1;PMS_P2;Temp;Humidity;BMP_temperature;BMP_pressure;BME280_temperature;BME280_humidity;BME280_pressure;Samples;Min_cycle;Max_cycle;Signal;HPM_P1;HPM_P2
2021/10/29 00:02:11;;;;;;;46.20;11.83;;;12.60;51.20;;;;;;5102413;28;20819;-88
2021/10/29 00:04:38;;;;;;;9.20;7.30;;;12.40;50.40;;;;;;5099735;28;20446;-88
2021/10/29 00:07:05;;;;;;;13.23;9.03;;;12.60;54.00;;;;;;5098505;28;20523;-87
2021/10/29 00:09:32;;;;;;;20.60;8.80;;;13.20;52.50;;;;;;5097689;28;20923;-88
2021/10/29 00:11:59;;;;;;;20.30;9.40;;;13.70;52.90;;;;;;5100464;28;20446;-88
2021/10/29 00:14:27;;;;;;;11.70;7.90;;;13.60;48.50;;;;;;5104710;28;20446;-87
2021/10/29 00:16:54;;;;;;;8.63;6.70;;;13.40;51.40;;;;;;5106849;28;20513;-89
2021/10/29 00:19:23;;;;;;;15.53;7.90;;;13.90;53.10;;;;;;5104572;28;20443;-88
2021/10/29 00:21:50;;;;;;;10.07;7.43;;;14.00;49.50;;;;;;5110746;28;20439;-88
2021/10/29 00:24:17;;;;;;;18.33;9.27;;;13.90;50.80;;;;;;5107310;28;20445;-88
2021/10/29 00:26:44;;;;;;;26.57;7.50;;;13.70;51.30;;;;;;5101907;28;20466;-88
2021/10/29 00:29:11;;;;;;;8.90;6.90;;;13.80;50.70;;;;;;5102770;28;20458;-88
2021/10/29 00:31:38;;;;;;;9.97;7.40;;;13.60;51.80;;;;;;5102944;28;20434;-88
2021/10/29 00:34:05;;;;;;;10.37;7.77;;;13.90;52.90;;;;;;5103094;28;20491;-88
2021/10/29 00:36:34;;;;;;;13.63;8.83;;;14.20;51.10;;;;;;5099203;28;20502;-88
2021/10/29 00:39:01;;;;;;;19.90;8.07;;;13.90;47.90;;;;;;5098407;28;20455;-88
2021/10/29 00:41:28;;;;;;;8.77;7.10;;;13.50;47.50;;;;;;5099535;28;20477;-88
2021/10/29 00:43:56;;;;;;;12.27;8.23;;;13.00;51.50;;;;;;5100353;28;20477;-88
2021/10/29 00:46:24;;;;;;;11.23;7.77;;;13.60;52.00;;;;;;5098844;28;20470;-88
2021/10/29 00:48:51;;;;;;;9.43;7.17;;;13.90;51.30;;;;;;5098035;28;20476;-88
2021/10/29 00:51:19;;;;;;;9.40;6.77;;;14.00;51.30;;;;;;5098571;28;20443;-88
2021/10/29 00:53:48;;;;;;;8.80;6.43;;;14.10;50.80;;;;;;5099090;28;20434;-88
2021/10/29 00:56:15;;;;;;;13.37;7.33;;;14.00;51.00;;;;;;5098190;28;20834;-88
2021/10/29 00:58:42;;;;;;;11.90;8.23;;;13.60;49.70;;;;;;5099273;28;20486;-88
2021/10/29 01:01:09;;;;;;;9.30;7.07;;;13.10;45.00;;;;;;5098548;28;20456;-88
2021/10/29 01:03:38;;;;;;;23.60;7.70;;;12.70;49.90;;;;;;5108609;28;20570;-87
2021/10/29 01:06:05;;;;;;;12.67;6.73;;;12.30;47.80;;;;;;5107404;28;20449;-88
2021/10/29 01:08:33;;;;;;;10.60;7.10;;;12.00;53.50;;;;;;5101083;28;20446;-88
2021/10/29 01:11:01;;;;;;;13.20;7.20;;;12.50;53.80;;;;;;5105843;28;20459;-88
2021/10/29 01:13:28;;;;;;;26.83;7.63;;;13.10;52.40;;;;;;5101655;28;20454;-88
2021/10/29 01:15:55;;;;;;;35.37;6.70;;;13.40;50.60;;;;;;5103254;28;20481;-88
2021/10/29 01:18:22;;;;;;;11.83;6.07;;;13.60;52.00;;;;;;5107856;28;20450;-88
2021/10/29 01:20:51;;;;;;;25.20;8.07;;;13.60;51.40;;;;;;5109867;28;20427;-88
2021/10/29 01:23:18;;;;;;;60.20;7.63;;;14.10;50.10;;;;;;5110007;28;20455;-88
2021/10/29 01:25:45;;;;;;;8.57;7.00;;;13.30;44.90;;;;;;5110030;28;20927;-88
2021/10/29 01:28:12;;;;;;;33.50;7.37;;;12.40;47.90;;;;;;5106905;28;20466;-87
2021/10/29 01:30:39;;;;;;;16.43;7.80;;;11.90;48.00;;;;;;5100339;28;20480;-88
2021/10/29 01:33:06;;;;;;;10.97;6.93;;;11.50;48.30;;;;;;5101204;28;20450;-88
2021/10/29 01:35:33;;;;;;;8.97;7.30;;;11.60;51.40;;;;;;5098037;28;20511;-88
2021/10/29 01:38:02;;;;;;;8.97;5.70;;;12.20;51.50;;;;;;5098209;28;20474;-86
2021/10/29 01:40:29;;;;;;;13.50;7.40;;;12.50;51.80;;;;;;5098938;28;20599;-88
2021/10/29 01:42:55;;;;;;;8.10;6.10;;;12.60;50.90;;;;;;5098883;28;20469;-86
2021/10/29 01:45:22;;;;;;;19.13;7.13;;;12.80;52.20;;;;;;5099085;28;20470;-86
2021/10/29 01:47:49;;;;;;;11.03;6.30;;;12.90;49.00;;;;;;5100146;28;20504;-87
2021/10/29 01:50:16;;;;;;;8.10;5.97;;;13.10;49.80;;;;;;5099633;28;20542;-87
2021/10/29 01:52:43;;;;;;;21.60;7.23;;;12.90;49.00;;;;;;5100930;28;20473;-87
2021/10/29 01:55:12;;;;;;;16.13;6.90;;;12.80;49.70;;;;;;5097819;28;20478;-88
2021/10/29 01:57:39;;;;;;;16.50;6.37;;;12.40;48.50;;;;;;5095680;28;20465;-88
2021/10/29 02:00:07;;;;;;;7.70;6.40;;;11.80;50.50;;;;;;5095974;28;20448;-88
2021/10/29 02:02:34;;;;;;;6.80;5.87;;;12.40;52.30;;;;;;5094686;28;20460;-88
2021/10/29 02:05:01;;;;;;;7.80;5.77;;;12.80;52.10;;;;;;5094307;28;20518;-88
2021/10/29 02:07:28;;;;;;;6.77;5.50;;;13.50;52.70;;;;;;5094052;28;20558;-87
2021/10/29 02:09:55;;;;;;;10.73;5.93;;;13.90;51.60;;;;;;5093794;28;20975;-88
2021/10/29 02:12:23;;;;;;;8.97;5.70;;;14.10;51.60;;;;;;5094073;28;20431;-88
2021/10/29 02:14:50;;;;;;;7.23;6.07;;;14.30;51.50;;;;;;5094015;28;20470;-88
2021/10/29 02:17:17;;;;;;;8.83;6.80;;;14.30;47.50;;;;;;5093946;28;20505;-88
2021/10/29 02:19:44;;;;;;;7.17;5.33;;;13.80;47.00;;;;;;5094211;28;20933;-88
2021/10/29 02:22:11;;;;;;;8.90;6.40;;;13.50;49.20;;;;;;5094365;28;20878;-88
2021/10/29 02:24:38;;;;;;;9.43;5.80;;;13.30;46.20;;;;;;5094591;28;20454;-88
2021/10/29 02:27:05;;;;;;;8.20;5.93;;;12.20;49.60;;;;;;5094147;28;20523;-88
2021/10/29 02:29:34;;;;;;;9.63;6.23;;;12.30;51.20;;;;;;5095775;28;20479;-88
2021/10/29 02:32:01;;;;;;;9.57;6.77;;;12.10;50.50;;;;;;5094460;28;20434;-88
2021/10/29 02:34:27;;;;;;;9.23;5.90;;;12.40;52.60;;;;;;5095902;28;20477;-88
2021/10/29 02:36:55;;;;;;;6.90;5.60;;;13.00;52.30;;;;;;5094261;28;20572;-88
2021/10/29 02:39:22;;;;;;;6.50;5.37;;;13.50;51.40;;;;;;5094348;28;20514;-88
2021/10/29 02:41:49;;;;;;;9.03;5.70;;;13.80;51.30;;;;;;5107429;28;20437;-88
2021/10/29 02:44:16;;;;;;;6.73;5.70;;;14.00;51.00;;;;;;5109326;28;20431;-88
2021/10/29 02:46:44;;;;;;;8.57;6.20;;;14.10;50.60;;;;;;5112414;28;20427;-88
2021/10/29 02:49:12;;;;;;;7.30;4.97;;;14.20;50.70;;;;;;5113714;28;20422;-87
2021/10/29 02:51:39;;;;;;;7.83;5.93;;;14.20;51.00;;;;;;5113809;28;20431;-88
2021/10/29 02:54:08;;;;;;;7.77;6.07;;;14.30;48.70;;;;;;5112502;28;20438;-88
2021/10/29 02:56:36;;;;;;;11.63;6.10;;;14.30;50.70;;;;;;5111716;28;20490;-88
2021/10/29 02:59:02;;;;;;;8.10;6.33;;;14.00;48.50;;;;;;5113130;28;20434;-88
2021/10/29 03:01:30;;;;;;;11.67;6.90;;;13.60;49.30;;;;;;5113284;28;20446;-88
2021/10/29 03:03:58;;;;;;;8.83;6.83;;;13.20;47.00;;;;;;5110729;28;20466;-88
2021/10/29 03:06:25;;;;;;;8.20;6.70;;;13.20;46.80;;;;;;5110701;28;20478;-88
2021/10/29 03:08:52;;;;;;;11.97;8.10;;;12.80;47.40;;;;;;5110445;28;20442;-89
2021/10/29 03:11:19;;;;;;;9.67;6.50;;;12.60;50.60;;;;;;5096262;28;20506;-89
2021/10/29 03:13:46;;;;;;;19.30;7.67;;;12.90;52.20;;;;;;5094185;28;20498;-88
2021/10/29 03:16:13;;;;;;;9.80;6.90;;;13.00;52.30;;;;;;5094861;28;20995;-88
2021/10/29 03:18:40;;;;;;;9.70;7.20;;;13.10;51.10;;;;;;5094436;28;20482;-88
2021/10/29 03:21:09;;;;;;;7.33;5.57;;;13.50;51.50;;;;;;5107066;28;20437;-84
2021/10/29 03:23:36;;;;;;;10.77;7.13;;;13.80;51.30;;;;;;5117159;28;20422;-84
2021/10/29 03:26:03;;;;;;;14.70;6.30;;;13.80;50.60;;;;;;5116625;28;20415;-84
2021/10/29 03:28:30;;;;;;;8.30;5.80;;;13.90;50.40;;;;;;5117160;28;20437;-83
2021/10/29 03:30:57;;;;;;;12.47;7.93;;;14.00;50.20;;;;;;5117222;28;20482;-83
2021/10/29 03:33:24;;;;;;;11.57;7.57;;;14.00;48.10;;;;;;5116754;28;20447;-83
2021/10/29 03:35:51;;;;;;;10.67;7.77;;;13.40;44.90;;;;;;5116999;28;20466;-84
2021/10/29 03:41:10;;;;;;;11.33;6.17;;;13.20;50.80;;;;;;5118577;28;20425;-86
2021/10/29 03:43:40;;;;;;;9.90;6.57;;;13.10;50.90;;;;;;5113990;28;20454;-87
2021/10/29 03:46:11;;;;;;;7.47;6.00;;;13.30;49.40;;;;;;5100091;28;20495;-87
2021/10/29 03:48:44;;;;;;;13.70;8.00;;;13.70;50.50;;;;;;5101267;28;20804;-88
2021/10/29 03:51:16;;;;;;;11.13;8.30;;;13.70;46.40;;;;;;5100202;28;20827;-88
2021/10/29 03:53:49;;;;;;;7.90;6.20;;;13.20;44.50;;;;;;5099499;28;20452;-87
2021/10/29 03:56:20;;;;;;;9.47;7.37;;;12.30;48.60;;;;;;5099204;28;20478;-88
2021/10/29 03:58:49;;;;;;;9.07;6.90;;;11.80;50.70;;;;;;5099476;28;20435;-88
2021/10/29 04:01:16;;;;;;;8.50;6.77;;;11.70;51.10;;;;;;5108917;28;20436;-87
2021/10/29 04:03:43;;;;;;;10.37;7.33;;;11.60;51.00;;;;;;5104214;28;20475;-88
2021/10/29 04:06:11;;;;;;;11.17;8.13;;;12.40;52.30;;;;;;5103001;28;20932;-88
2021/10/29 04:08:38;;;;;;;10.53;7.57;;;12.60;51.90;;;;;;5100253;28;20537;-87
2021/10/29 04:11:06;;;;;;;16.23;6.80;;;12.60;50.50;;;;;;5098478;28;20531;-87
2021/10/29 04:13:36;;;;;;;11.87;7.17;;;12.50;52.20;;;;;;5100589;28;20524;-87
2021/10/29 04:16:04;;;;;;;29.20;6.90;;;12.50;52.70;;;;;;5101143;28;20516;-86
2021/10/29 04:18:33;;;;;;;34.73;6.93;;;12.70;52.00;;;;;;5098355;28;20530;-88
2021/10/29 04:21:00;;;;;;;56.40;6.97;;;12.80;52.10;;;;;;5097153;28;20458;-87
2021/10/29 04:23:27;;;;;;;68.93;7.50;;;12.40;51.60;;;;;;5097016;28;20471;-88
2021/10/29 04:25:55;;;;;;;86.13;7.90;;;12.40;51.70;;;;;;5096957;28;20816;-87
2021/10/29 04:28:23;;;;;;;150.43;9.13;;;12.20;50.50;;;;;;5097254;28;20497;-88
2021/10/29 04:30:52;;;;;;;13.30;5.67;;;12.00;45.10;;;;;;5097058;28;20494;-88
2021/10/29 04:33:19;;;;;;;94.97;9.50;;;11.50;52.00;;;;;;5095289;28;21009;-87
2021/10/29 04:35:51;;;;;;;97.27;8.20;;;11.70;49.50;;;;;;5097094;28;20456;-87
2021/10/29 04:38:17;;;;;;;145.90;9.30;;;11.80;51.20;;;;;;5096002;28;20536;-88
2021/10/29 04:40:44;;;;;;;116.73;7.33;;;11.90;47.40;;;;;;5096364;28;20451;-88
2021/10/29 04:43:12;;;;;;;96.63;7.73;;;11.30;50.70;;;;;;5096772;28;20474;-87
2021/10/29 04:45:41;;;;;;;67.00;7.10;;;11.30;49.00;;;;;;5097434;28;20466;-88
2021/10/29 04:48:08;;;;;;;53.40;7.70;;;11.10;48.40;;;;;;5096117;28;20455;-87
2021/10/29 04:50:36;;;;;;;24.43;8.00;;;11.20;49.10;;;;;;5096724;28;20442;-87
2021/10/29 04:53:03;;;;;;;15.10;8.50;;;10.50;46.50;;;;;;5096797;28;20500;-88
2021/10/29 04:55:30;;;;;;;10.90;8.03;;;10.50;51.60;;;;;;5096958;28;20446;-87
2021/10/29 04:57:57;;;;;;;12.70;8.60;;;10.70;49.50;;;;;;5096511;28;20516;-88
2021/10/29 05:00:25;;;;;;;9.70;7.33;;;10.50;51.00;;;;;;5097363;28;20459;-88
2021/10/29 05:02:54;;;;;;;11.83;8.43;;;10.60;53.90;;;;;;5096386;28;20438;-88
2021/10/29 05:05:22;;;;;;;9.87;6.67;;;11.00;49.50;;;;;;5096135;28;20447;-87
2021/10/29 05:07:49;;;;;;;12.13;8.00;;;11.50;51.60;;;;;;5097518;28;20471;-87
2021/10/29 05:10:16;;;;;;;8.13;6.23;;;10.90;48.70;;;;;;5096133;28;20482;-88
2021/10/29 05:12:46;;;;;;;10.03;7.20;;;11.00;52.70;;;;;;5097650;28;20450;-88
2021/10/29 05:15:13;;;;;;;7.53;5.90;;;11.50;52.30;;;;;;5098576;28;20438;-87
2021/10/29 05:17:41;;;;;;;12.30;8.47;;;11.70;51.80;;;;;;5101145;28;20501;-88
2021/10/29 05:20:10;;;;;;;10.27;8.27;;;11.30;46.90;;;;;;5102507;28;20451;-88
2021/10/29 05:22:37;;;;;;;7.63;6.27;;;10.90;48.70;;;;;;5097825;28;20468;-87
2021/10/29 05:25:04;;;;;;;11.57;8.37;;;11.00;51.80;;;;;;5097774;28;20481;-87
2021/10/29 05:27:31;;;;;;;8.70;6.40;;;10.90;50.10;;;;;;5097672;28;21024;-87
2021/10/29 05:29:58;;;;;;;8.70;6.63;;;10.90;51.70;;;;;;5098974;28;20463;-87
2021/10/29 05:32:25;;;;;;;12.07;8.20;;;11.30;52.30;;;;;;5097968;28;20463;-87
2021/10/29 05:34:51;;;;;;;10.70;7.73;;;12.00;51.30;;;;;;5103254;28;20465;-87
2021/10/29 05:37:20;;;;;;;7.03;6.17;;;11.80;48.40;;;;;;5102410;28;20513;-87
2021/10/29 05:39:47;;;;;;;8.00;6.67;;;12.20;51.50;;;;;;5103199;28;20523;-88
2021/10/29 05:42:14;;;;;;;8.93;6.50;;;12.10;51.50;;;;;;5100668;28;20947;-87
2021/10/29 05:44:41;;;;;;;9.83;7.27;;;12.10;48.00;;;;;;5098312;28;20466;-88
2021/10/29 05:47:08;;;;;;;9.97;7.03;;;11.80;46.70;;;;;;5098270;28;20458;-88
2021/10/29 05:49:35;;;;;;;9.57;6.70;;;11.80;49.10;;;;;;5104288;28;20502;-87
2021/10/29 05:52:05;;;;;;;11.23;7.40;;;11.70;49.50;;;;;;5110143;28;20434;-87
2021/10/29 05:55:01;;;;;;;8.93;7.30;;;12.00;49.80;;;;;;5109478;28;20446;-88
2021/10/29 05:57:28;;;;;;;6.00;5.40;;;11.60;48.00;;;;;;5110632;28;20549;-88
2021/10/29 05:59:55;;;;;;;15.53;9.07;;;11.60;52.00;;;;;;5108796;28;20462;-89
2021/10/29 06:02:22;;;;;;;10.20;7.00;;;11.80;49.50;;;;;;5104650;28;20435;-88
2021/10/29 06:04:49;;;;;;;9.50;7.37;;;11.50;50.90;;;;;;5098424;28;20462;-89
2021/10/29 06:07:17;;;;;;;10.27;7.40;;;11.40;53.20;;;;;;5108403;28;20470;-88
2021/10/29 06:09:45;;;;;;;9.97;7.57;;;11.80;49.60;;;;;;5106494;28;20462;-89
2021/10/29 06:12:12;;;;;;;8.43;6.40;;;11.70;50.50;;;;;;5106953;28;20476;-88
2021/10/29 06:14:39;;;;;;;9.20;6.87;;;12.40;52.40;;;;;;5110743;28;20456;-87
2021/10/29 06:17:08;;;;;;;28.50;7.93;;;12.80;51.60;;;;;;5103484;28;20482;-88
2021/10/29 06:19:35;;;;;;;8.13;6.33;;;13.20;50.90;;;;;;5098357;28;20959;-88
2021/10/29 06:22:07;;;;;;;18.00;8.10;;;13.50;51.30;;;;;;5107005;28;20860;-87
2021/10/29 06:24:35;;;;;;;9.97;6.97;;;13.20;48.30;;;;;;5107353;28;20470;-89
2021/10/29 06:27:09;;;;;;;12.00;7.40;;;13.00;49.10;;;;;;5101839;28;20940;-88
2021/10/29 06:29:36;;;;;;;9.97;7.23;;;13.10;48.60;;;;;;5100732;28;20784;-89
2021/10/29 06:32:06;;;;;;;12.00;6.70;;;13.20;50.60;;;;;;5100119;28;20464;-88
2021/10/29 06:34:34;;;;;;;8.00;5.87;;;12.80;44.00;;;;;;5106307;28;20462;-88
2021/10/29 06:37:02;;;;;;;10.40;7.70;;;12.90;50.50;;;;;;5099593;28;20545;-88
2021/10/29 06:39:29;;;;;;;8.13;5.90;;;13.10;49.30;;;;;;5097041;28;20454;-88
2021/10/29 06:41:57;;;;;;;9.37;6.63;;;12.70;49.00;;;;;;5096196;28;20517;-88
2021/10/29 06:44:33;;;;;;;14.17;7.00;;;12.60;49.80;;;;;;5095234;28;20449;-87
2021/10/29 06:59:12;;;;;;;13.87;7.57;;;13.60;48.60;;;;;;5098172;28;20425;-88
2021/10/29 07:00:58;;;;;;;9.70;6.87;;;13.60;46.70;;;;;;5103366;28;20943;-87
2021/10/29 07:03:52;;;;;;;8.10;6.70;;;13.60;46.50;;;;;;5101144;28;20431;-88
2021/10/29 07:42:09;;;;;;;11.50;6.67;;;12.70;45.30;;;;;;5102579;28;20837;-88
2021/10/29 07:44:37;;;;;;;6.87;6.03;;;12.90;48.20;;;;;;5101616;28;20538;-88
2021/10/29 07:47:04;;;;;;;8.13;6.47;;;13.40;47.40;;;;;;5106745;28;20815;-88
2021/10/29 07:49:33;;;;;;;15.83;7.17;;;13.70;45.90;;;;;;5098933;28;20430;-88
2021/10/29 07:52:00;;;;;;;11.70;7.43;;;13.90;46.10;;;;;;5106233;28;20454;-88
2021/10/29 07:54:27;;;;;;;9.40;6.67;;;13.70;43.50;;;;;;5101522;28;20525;-88
2021/10/29 07:56:54;;;;;;;9.60;7.23;;;13.40;44.50;;;;;;5100459;28;20482;-88
2021/10/29 07:59:23;;;;;;;9.90;6.97;;;13.50;45.80;;;;;;5099942;28;20454;-88
2021/10/29 08:01:50;;;;;;;11.60;8.10;;;13.70;47.30;;;;;;5099127;28;20924;-88
2021/10/29 08:04:20;;;;;;;13.20;7.20;;;13.70;45.60;;;;;;5099349;28;20512;-88
2021/10/29 08:06:49;;;;;;;16.20;8.07;;;14.10;48.30;;;;;;5098951;28;20478;-88
2021/10/29 08:09:16;;;;;;;10.10;8.23;;;14.00;44.80;;;;;;5099419;28;20500;-88
2021/10/29 08:11:43;;;;;;;10.70;7.70;;;14.20;44.60;;;;;;5100138;28;20446;-88
2021/10/29 08:14:10;;;;;;;10.77;7.33;;;14.70;46.80;;;;;;5098811;28;20474;-88
2021/10/29 08:16:37;;;;;;;17.17;7.67;;;14.40;45.00;;;;;;5098361;28;20470;-87
2021/10/29 08:19:04;;;;;;;10.83;7.70;;;14.40;44.50;;;;;;5100734;28;20525;-87
2021/10/29 08:21:31;;;;;;;9.77;7.73;;;13.80;44.60;;;;;;5098812;28;20489;-88
2021/10/29 08:23:59;;;;;;;9.70;7.30;;;13.70;46.80;;;;;;5100581;28;20537;-88
2021/10/29 08:26:26;;;;;;;9.10;6.97;;;13.60;46.20;;;;;;5112950;28;20474;-88
2021/10/29 08:28:53;;;;;;;14.30;9.90;;;13.70;46.50;;;;;;5113578;28;20446;-88
2021/10/29 08:31:21;;;;;;;11.33;8.90;;;13.90;46.00;;;;;;5108252;28;20458;-88
2021/10/29 08:33:48;;;;;;;23.90;8.40;;;14.30;46.50;;;;;;5098407;28;20558;-89
2021/10/29 08:36:16;;;;;;;14.87;9.57;;;14.30;46.50;;;;;;5098686;28;20483;-88
2021/10/29 08:38:43;;;;;;;10.17;7.97;;;14.60;45.30;;;;;;5098837;28;20471;-88
2021/10/29 08:41:12;;;;;;;23.43;13.70;;;14.60;46.30;;;;;;5098450;28;20495;-88
2021/10/29 08:43:39;;;;;;;25.13;12.13;;;14.70;46.00;;;;;;5098737;28;20443;-87
2021/10/29 08:46:07;;;;;;;20.93;11.80;;;14.30;45.20;;;;;;5099334;28;20488;-87
2021/10/29 08:48:37;;;;;;;19.47;10.77;;;14.60;48.00;;;;;;5099012;28;20475;-88
2021/10/29 08:51:04;;;;;;;21.57;12.17;;;15.30;47.10;;;;;;5098448;28;20435;-88
2021/10/29 08:53:31;;;;;;;18.17;10.90;;;15.50;46.40;;;;;;5097848;28;20427;-87
2021/10/29 08:56:02;;;;;;;20.03;11.43;;;15.30;44.70;;;;;;5099127;28;20466;-88
2021/10/29 08:58:34;;;;;;;12.60;7.70;;;15.50;43.90;;;;;;5118501;28;20462;-85
2021/10/29 09:01:02;;;;;;;12.60;8.63;;;15.70;44.80;;;;;;5118826;28;20510;-86
2021/10/29 09:03:39;;;;;;;12.87;8.53;;;15.90;44.50;;;;;;5118548;28;20424;-84
2021/10/29 09:06:23;;;;;;;26.10;13.50;;;15.80;45.00;;;;;;5118702;28;20425;-84
2021/10/29 09:09:01;;;;;;;30.23;14.30;;;15.70;43.60;;;;;;5118629;28;20491;-85
2021/10/29 09:12:05;;;;;;;17.07;8.63;;;15.60;44.60;;;;;;5128797;28;20411;-83
2021/10/29 09:31:24;;;;;;;12.83;8.83;;;14.10;47.10;;;;;;5117168;28;20410;-88
2021/10/29 09:33:52;;;;;;;13.90;9.80;;;14.10;47.90;;;;;;5121415;28;20454;-88
2021/10/29 09:39:42;;;;;;;10.33;7.80;;;15.20;46.80;;;;;;5117490;28;20409;-88
2021/10/29 09:42:12;;;;;;;14.80;8.27;;;15.40;43.50;;;;;;5117526;28;20916;-88
2021/10/29 09:44:41;;;;;;;14.77;8.60;;;15.70;44.20;;;;;;5117667;28;20555;-88
2021/10/29 09:47:10;;;;;;;17.33;8.20;;;16.10;43.60;;;;;;5118952;28;20471;-91
2021/10/29 09:49:40;;;;;;;14.63;9.17;;;15.90;43.70;;;;;;5120152;28;20447;-90
2021/10/29 09:52:35;;;;;;;14.10;8.00;;;16.70;44.50;;;;;;5119472;28;21057;-90
2021/10/29 09:55:14;;;;;;;11.87;7.87;;;16.60;41.40;;;;;;5131931;28;20437;-89
2021/10/29 09:57:41;;;;;;;16.10;10.07;;;16.10;42.90;;;;;;5129247;28;20505;-91
2021/10/29 10:00:11;;;;;;;15.10;9.90;;;16.20;42.50;;;;;;5119544;28;20476;-91
2021/10/29 10:02:42;;;;;;;15.93;8.90;;;16.50;42.80;;;;;;5117753;28;20521;-90
2021/10/29 10:05:10;;;;;;;10.93;8.10;;;16.60;41.40;;;;;;5117662;28;20494;-92
2021/10/29 10:07:41;;;;;;;15.17;9.90;;;17.00;42.90;;;;;;5122418;28;20503;-91
2021/10/29 10:10:10;;;;;;;12.20;6.67;;;17.40;42.90;;;;;;5124132;28;20524;-91
2021/10/29 10:12:43;;;;;;;10.73;6.50;;;17.50;42.30;;;;;;5130478;28;20449;-90
2021/10/29 10:15:11;;;;;;;14.20;8.70;;;17.30;42.10;;;;;;5124180;28;20430;-90
2021/10/29 10:17:39;;;;;;;11.00;7.77;;;17.40;42.20;;;;;;5120332;28;20485;-91
2021/10/29 10:20:09;;;;;;;17.53;9.63;;;17.50;41.40;;;;;;5119604;28;20536;-91
2021/10/29 10:22:39;;;;;;;14.33;8.37;;;17.10;40.90;;;;;;5131390;28;20513;-91
2021/10/29 10:25:12;;;;;;;15.97;9.00;;;17.00;41.10;;;;;;5134688;28;20501;-91
2021/10/29 10:30:46;;;;;;;13.67;9.83;;;17.00;42.80;;;;;;5136290;28;20505;-91
2021/10/29 10:42:11;;;;;;;18.33;9.23;;;16.60;41.10;;;;;;5119190;28;20739;-92
2021/10/29 10:44:48;;;;;;;10.87;7.73;;;16.70;41.60;;;;;;5119076;28;20487;-92
2021/10/29 10:47:21;;;;;;;11.73;8.80;;;16.60;43.80;;;;;;5119425;28;20469;-92
2021/10/29 10:50:07;;;;;;;16.87;9.27;;;16.40;43.50;;;;;;5122899;28;20450;-92
2021/10/29 10:53:12;;;;;;;16.40;8.70;;;16.90;42.80;;;;;;5134394;28;20453;-92
2021/10/29 10:55:53;;;;;;;16.03;9.37;;;16.90;41.70;;;;;;5126434;28;20482;-92
2021/10/29 10:58:27;;;;;;;14.07;8.63;;;16.70;42.80;;;;;;5123185;28;20541;-93
2021/10/29 11:01:13;;;;;;;11.40;7.70;;;16.90;41.80;;;;;;5123586;28;20933;-93
2021/10/29 11:10:10;;;;;;;14.30;7.97;;;17.50;39.30;;;;;;5108086;28;20507;-93
2021/10/29 11:13:05;;;;;;;17.13;10.10;;;17.50;40.30;;;;;;5122556;28;20524;-93
2021/10/29 11:15:32;;;;;;;14.23;9.10;;;17.60;39.50;;;;;;5116640;28;20442;-91
2021/10/29 11:18:01;;;;;;;15.70;9.97;;;17.80;39.60;;;;;;5123537;28;20897;-91
2021/10/29 11:20:44;;;;;;;11.17;8.13;;;17.40;40.10;;;;;;5127189;28;20535;-92
2021/10/29 11:23:17;;;;;;;16.47;9.37;;;17.30;41.60;;;;;;5126573;28;20434;-92
2021/10/29 11:25:51;;;;;;;14.80;11.00;;;17.80;41.00;;;;;;5125164;28;20852;-92
2021/10/29 11:28:20;;;;;;;15.00;9.80;;;17.80;39.70;;;;;;5128839;28;20469;-91
2021/10/29 11:30:47;;;;;;;11.93;7.43;;;18.10;38.60;;;;;;5127169;28;20536;-91
2021/10/29 11:33:16;;;;;;;13.53;7.57;;;18.50;39.50;;;;;;5126528;28;20464;-92
2021/10/29 11:35:55;;;;;;;12.13;8.20;;;18.40;40.90;;;;;;5127086;28;20848;-92
2021/10/29 11:38:23;;;;;;;11.17;7.67;;;18.50;38.90;;;;;;5128746;28;20472;-92
2021/10/29 11:40:52;;;;;;;13.50;8.67;;;18.90;39.70;;;;;;5129430;28;20445;-93
2021/10/29 11:43:24;;;;;;;13.67;9.00;;;19.30;37.70;;;;;;5130262;28;20452;-92
2021/10/29 11:45:52;;;;;;;13.70;9.27;;;19.50;36.80;;;;;;5130660;28;20453;-92
2021/10/29 11:48:19;;;;;;;14.73;9.50;;;19.40;36.50;;;;;;5128840;28;21044;-92
2021/10/29 11:50:47;;;;;;;16.37;10.40;;;19.10;36.00;;;;;;5131068;28;20433;-90
2021/10/29 11:53:19;;;;;;;9.23;5.30;;;18.20;37.00;;;;;;5135138;28;20456;-90
2021/10/29 11:55:49;;;;;;;13.60;8.97;;;18.50;41.40;;;;;;5131610;28;20441;-88
2021/10/29 11:58:23;;;;;;;14.93;8.40;;;19.20;37.50;;;;;;5126249;28;20477;-89
2021/10/29 12:01:10;;;;;;;16.00;10.50;;;19.40;36.70;;;;;;5125681;28;20443;-90
2021/10/29 12:09:27;;;;;;;14.30;8.80;;;19.30;35.90;;;;;;5128082;28;20440;-90
2021/10/29 12:11:56;;;;;;;15.30;8.30;;;19.10;35.20;;;;;;5139242;28;20490;-89
2021/10/29 12:14:33;;;;;;;14.23;9.17;;;19.10;35.10;;;;;;5139813;28;20438;-91
2021/10/29 12:17:14;;;;;;;14.63;8.60;;;19.10;35.50;;;;;;5135291;28;20465;-91
2021/10/29 12:19:44;;;;;;;13.90;7.57;;;19.00;35.50;;;;;;5136330;28;20473;-89
2021/10/29 12:22:28;;;;;;;14.57;8.97;;;19.10;36.00;;;;;;5130104;28;20442;-89
2021/10/29 12:24:59;;;;;;;14.77;7.87;;;19.20;35.80;;;;;;5125902;28;20467;-90
2021/10/29 12:27:32;;;;;;;14.77;9.27;;;19.00;35.30;;;;;;5123422;28;20453;-90
2021/10/29 13:01:32;;;;;;;11.13;7.73;;;20.30;32.50;;;;;;5108829;28;20950;-91
2021/10/29 13:04:03;;;;;;;11.63;7.63;;;20.50;32.30;;;;;;5120684;28;20410;-92
2021/10/29 13:06:32;;;;;;;16.10;7.67;;;20.30;31.90;;;;;;5123583;28;21013;-90
2021/10/29 13:09:00;;;;;;;12.60;7.73;;;20.40;32.30;;;;;;5119128;28;20810;-90
2021/10/29 13:11:34;;;;;;;12.27;7.40;;;20.20;32.50;;;;;;5125351;28;20467;-90
2021/10/29 13:14:02;;;;;;;16.10;5.10;;;20.40;33.00;;;;;;5120004;28;20453;-90
2021/10/29 13:16:30;;;;;;;18.03;7.60;;;20.60;35.90;;;;;;5124468;28;20457;-90
2021/10/29 13:24:37;;;;;;;11.07;7.80;;;20.60;31.40;;;;;;5121195;28;20438;-90
2021/10/29 13:27:24;;;;;;;16.13;7.70;;;20.50;32.70;;;;;;5118214;28;20454;-90
2021/10/29 13:35:37;;;;;;;12.70;7.50;;;20.60;34.40;;;;;;5126684;28;20469;-90
2021/10/29 13:51:52;;;;;;;11.80;6.67;;;20.20;30.70;;;;;;5119056;28;20488;-91
2021/10/29 13:54:28;;;;;;;9.83;6.50;;;20.20;30.90;;;;;;5129506;28;20434;-89
2021/10/29 13:57:15;;;;;;;11.67;5.80;;;20.30;30.90;;;;;;5128156;28;20462;-91
2021/10/29 14:00:03;;;;;;;6.80;4.80;;;20.50;31.50;;;;;;5132452;28;20543;-91
2021/10/29 14:28:06;;;;;;;8.90;5.53;;;19.60;31.10;;;;;;5125064;28;20401;-86
2021/10/29 14:30:10;;;;;;;6.63;4.67;;;19.30;31.10;;;;;;5137791;28;20456;-85
2021/10/29 14:32:43;;;;;;;5.80;4.77;;;19.50;36.00;;;;;;5137576;27;20532;-86
2021/10/29 14:35:16;;;;;;;5.90;4.13;;;19.60;34.90;;;;;;5137564;28;20483;-85
2021/10/29 14:37:53;;;;;;;10.27;6.47;;;19.70;35.60;;;;;;5137219;28;20457;-86
2021/10/29 14:40:24;;;;;;;6.93;4.50;;;19.70;32.90;;;;;;5136947;28;20548;-89
2021/10/29 14:42:56;;;;;;;7.67;5.00;;;19.80;36.20;;;;;;5136750;28;20442;-86
2021/10/29 14:45:26;;;;;;;7.97;5.23;;;19.90;34.70;;;;;;5124286;28;20430;-89
2021/10/29 14:48:02;;;;;;;14.43;6.00;;;19.80;35.10;;;;;;5121545;28;20499;-90
2021/10/29 14:50:50;;;;;;;10.63;5.97;;;19.70;32.50;;;;;;5126168;28;20461;-90
2021/10/29 15:15:50;;;;;;;11.47;3.90;;;19.60;38.80;;;;;;5079870;28;20439;-92
2021/10/29 15:29:18;;;;;;;7.97;4.30;;;19.80;35.60;;;;;;5093730;28;20427;-86
2021/10/29 15:42:49;;;;;;;9.93;5.40;;;19.70;37.20;;;;;;5099914;28;20426;-85
2021/10/29 15:45:34;;;;;;;13.30;8.03;;;19.50;37.00;;;;;;5098383;28;20919;-86
2021/10/29 15:48:06;;;;;;;9.20;6.30;;;19.20;33.60;;;;;;5097935;28;20462;-86
2021/10/29 15:50:35;;;;;;;10.87;7.07;;;19.20;35.90;;;;;;5097567;28;20438;-85
2021/10/29 15:53:02;;;;;;;9.07;5.60;;;19.20;35.40;;;;;;5098436;28;20467;-85
2021/10/29 15:55:33;;;;;;;5.93;3.80;;;19.30;38.60;;;;;;5097762;28;20543;-86
2021/10/29 15:58:08;;;;;;;13.73;7.77;;;19.30;39.90;;;;;;5096883;28;20466;-86
2021/10/29 16:00:39;;;;;;;12.13;7.37;;;19.30;36.20;;;;;;5098900;28;20454;-85
2021/10/29 16:03:13;;;;;;;15.13;7.20;;;19.20;35.10;;;;;;5103983;28;20443;-85
2021/10/29 16:17:07;;;;;;;17.57;9.73;;;18.20;37.00;;;;;;5097745;28;20521;-86
2021/10/29 16:19:36;;;;;;;4.90;3.93;;;18.10;35.50;;;;;;5097797;28;20470;-86
2021/10/29 16:22:05;;;;;;;8.53;5.87;;;18.20;41.90;;;;;;5098949;28;20466;-86
2021/10/29 16:24:33;;;;;;;6.97;5.00;;;18.50;41.60;;;;;;5097622;28;20439;-85
2021/10/29 16:27:00;;;;;;;13.93;7.00;;;18.60;42.00;;;;;;5096789;28;20470;-86
2021/10/29 16:29:27;;;;;;;13.53;8.40;;;18.70;38.30;;;;;;5097126;28;20999;-86
2021/10/29 16:31:56;;;;;;;7.10;5.23;;;18.50;38.60;;;;;;5097167;28;20435;-86
2021/10/29 16:34:24;;;;;;;12.03;5.63;;;18.50;41.50;;;;;;5097023;28;20466;-86
2021/10/29 16:36:52;;;;;;;7.10;4.93;;;18.40;41.70;;;;;;5096689;28;20986;-86
2021/10/29 16:39:19;;;;;;;9.50;6.87;;;18.50;42.80;;;;;;5097194;28;20550;-86
2021/10/29 16:41:46;;;;;;;6.37;4.10;;;18.50;42.40;;;;;;5096661;28;20510;-86
2021/10/29 16:44:13;;;;;;;9.10;5.83;;;18.40;43.10;;;;;;5096456;28;20521;-85
2021/10/29 16:46:40;;;;;;;6.57;5.00;;;18.50;43.10;;;;;;5096030;28;20476;-86